Time;durP1;ratioP1;P1;durP2;ratioP2;P2;SDS_P1;SDS_P2;PMS_P1;PMS_P2;Temp;Humidity;BMP_temperature;BMP_pressure;BME280_temperature;BME280_humidity;BME280_pressure;Samples;Min_cycle;Max_cycle;Signal;HPM_P1;HPM_P2
2021/08/11 00:01:08;;;;;;;23.60;21.83;;;;;;;;;;5016729;28;20434;-95
2021/08/11 00:03:36;;;;;;;22.97;21.53;;;;;;;;;;4999311;28;20825;-95
2021/08/11 00:06:05;;;;;;;22.07;20.70;;;;;;;;;;5016732;28;20438;-95
2021/08/11 00:08:32;;;;;;;22.20;20.60;;;;;;;;;;5016693;28;20438;-96
2021/08/11 00:11:00;;;;;;;21.97;20.60;;;;;;;;;;5016218;28;20488;-95
2021/08/11 00:13:27;;;;;;;21.70;20.40;;;;;;;;;;5016642;28;20452;-95
2021/08/11 00:15:55;;;;;;;21.87;20.63;;;;;;;;;;5017146;28;20768;-95
2021/08/11 00:18:22;;;;;;;22.70;21.40;;;;;;;;;;4999116;28;20444;-95
2021/08/11 00:20:50;;;;;;;22.80;21.20;;;;;;;;;;4999039;28;21018;-95
2021/08/11 00:23:19;;;;;;;22.97;21.20;;;;;;;;;;5016324;28;20492;-95
2021/08/11 00:25:47;;;;;;;21.67;20.27;;;;;;;;;;5016161;28;20931;-95
2021/08/11 00:28:14;;;;;;;21.90;20.60;;;;;;;;;;5016308;28;20445;-95
2021/08/11 00:30:42;;;;;;;21.10;19.80;;;;;;;;;;5015945;28;20442;-96
2021/08/11 00:33:09;;;;;;;22.57;21.17;;;;;;;;;;5016054;28;20468;-95
2021/08/11 00:35:36;;;;;;;21.83;20.20;;;;;;;;;;5016679;28;20808;-95
2021/08/11 00:38:04;;;;;;;21.80;20.23;;;;;;;;;;4998867;28;20412;-95
2021/08/11 00:40:34;;;;;;;20.70;19.47;;;;;;;;;;5015924;28;20881;-96
2021/08/11 00:43:05;;;;;;;23.70;22.20;;;;;;;;;;5016064;28;20448;-95
2021/08/11 00:45:33;;;;;;;22.70;21.00;;;;;;;;;;5016038;28;20773;-95
2021/08/11 00:48:00;;;;;;;23.03;21.27;;;;;;;;;;4998478;28;20509;-95
2021/08/11 00:50:28;;;;;;;23.47;21.97;;;;;;;;;;5015945;28;20844;-95
2021/08/11 00:52:55;;;;;;;22.90;21.47;;;;;;;;;;5015606;28;20445;-94
2021/08/11 00:55:24;;;;;;;23.40;21.80;;;;;;;;;;5015906;28;20422;-96
2021/08/11 00:57:55;;;;;;;24.37;22.67;;;;;;;;;;5015587;28;20445;-94
2021/08/11 01:00:23;;;;;;;23.23;21.50;;;;;;;;;;5015634;28;20471;-95
2021/08/11 01:02:52;;;;;;;23.57;21.97;;;;;;;;;;5015400;28;20488;-95
2021/08/11 01:05:19;;;;;;;23.30;21.60;;;;;;;;;;5015232;28;20469;-96
2021/08/11 01:07:47;;;;;;;22.17;20.70;;;;;;;;;;4998605;28;20449;-95
2021/08/11 01:10:17;;;;;;;23.97;22.47;;;;;;;;;;5015468;28;20467;-95
2021/08/11 01:12:45;;;;;;;22.50;21.20;;;;;;;;;;5015084;28;20482;-95
2021/08/11 01:15:14;;;;;;;24.27;22.60;;;;;;;;;;5015510;28;20793;-95
2021/08/11 01:17:41;;;;;;;25.47;23.27;;;;;;;;;;5015506;28;20786;-95
2021/08/11 01:20:09;;;;;;;23.90;22.23;;;;;;;;;;5015345;28;20413;-95
2021/08/11 01:22:40;;;;;;;24.80;23.03;;;;;;;;;;5015383;28;20459;-96
2021/08/11 01:25:12;;;;;;;23.67;22.13;;;;;;;;;;5015719;28;20408;-95
2021/08/11 01:27:54;;;;;;;24.63;23.03;;;;;;;;;;5015112;28;20433;-95
2021/08/11 01:30:28;;;;;;;25.23;23.47;;;;;;;;;;4973009;28;20428;-95
2021/08/11 01:33:20;;;;;;;24.53;22.97;;;;;;;;;;5015276;28;20409;-95
2021/08/11 01:35:50;;;;;;;25.30;23.53;;;;;;;;;;5015150;28;20436;-96
2021/08/11 01:38:20;;;;;;;25.30;23.47;;;;;;;;;;5015211;28;20420;-95
2021/08/11 01:40:49;;;;;;;27.20;25.00;;;;;;;;;;5015224;28;20404;-96
2021/08/11 01:43:17;;;;;;;25.60;23.60;;;;;;;;;;5014704;28;21028;-95
2021/08/11 01:45:45;;;;;;;25.53;23.70;;;;;;;;;;5015106;28;20436;-95
2021/08/11 01:48:13;;;;;;;26.07;24.03;;;;;;;;;;5014944;28;20444;-95
2021/08/11 01:50:45;;;;;;;24.83;23.10;;;;;;;;;;5014629;28;20442;-95
2021/08/11 01:53:13;;;;;;;24.60;22.90;;;;;;;;;;4997586;28;20463;-95
2021/08/11 01:55:41;;;;;;;25.93;24.03;;;;;;;;;;5014843;28;20432;-95
2021/08/11 01:58:08;;;;;;;24.33;22.67;;;;;;;;;;5014830;28;20443;-95
2021/08/11 02:00:36;;;;;;;24.57;22.80;;;;;;;;;;5014703;28;20440;-95
2021/08/11 02:03:05;;;;;;;24.80;23.20;;;;;;;;;;5014341;28;20500;-95
2021/08/11 02:05:33;;;;;;;25.93;24.13;;;;;;;;;;4998168;28;20416;-95
2021/08/11 02:08:05;;;;;;;24.20;22.60;;;;;;;;;;5014750;28;20399;-96
2021/08/11 02:10:32;;;;;;;27.13;25.10;;;;;;;;;;5014098;28;20483;-95
2021/08/11 02:13:01;;;;;;;25.37;23.63;;;;;;;;;;5014458;28;20768;-95
2021/08/11 02:15:28;;;;;;;25.37;23.60;;;;;;;;;;5014880;28;20441;-95
2021/08/11 02:17:58;;;;;;;25.60;23.90;;;;;;;;;;5014698;28;20434;-95
2021/08/11 02:20:25;;;;;;;25.03;23.43;;;;;;;;;;5014354;28;20414;-95
2021/08/11 02:22:53;;;;;;;23.87;22.37;;;;;;;;;;5014872;28;20467;-96
2021/08/11 02:25:22;;;;;;;24.23;22.60;;;;;;;;;;5015104;28;20411;-96
2021/08/11 02:27:51;;;;;;;25.50;23.80;;;;;;;;;;5014609;28;20426;-95
2021/08/11 02:30:22;;;;;;;25.03;23.33;;;;;;;;;;5014446;28;20433;-95
2021/08/11 02:32:50;;;;;;;23.40;21.90;;;;;;;;;;4997157;28;20427;-95
2021/08/11 02:35:20;;;;;;;26.40;24.37;;;;;;;;;;5014653;28;20436;-94
2021/08/11 02:37:51;;;;;;;24.43;22.83;;;;;;;;;;5014516;28;20418;-95
2021/08/11 02:40:21;;;;;;;23.97;22.33;;;;;;;;;;5015015;28;20441;-96
2021/08/11 02:42:53;;;;;;;24.77;22.90;;;;;;;;;;5014974;28;20395;-95
2021/08/11 02:45:20;;;;;;;23.57;22.17;;;;;;;;;;5014490;28;20441;-95
2021/08/11 02:47:49;;;;;;;24.03;22.53;;;;;;;;;;5014118;28;20422;-95
2021/08/11 02:50:17;;;;;;;26.80;25.00;;;;;;;;;;5014276;28;20426;-95
2021/08/11 02:52:45;;;;;;;27.40;24.77;;;;;;;;;;5014124;28;20408;-95
2021/08/11 02:55:13;;;;;;;26.47;23.97;;;;;;;;;;5014209;28;20442;-95
2021/08/11 02:57:41;;;;;;;27.17;25.07;;;;;;;;;;5013936;28;20446;-96
2021/08/11 03:00:11;;;;;;;26.27;24.47;;;;;;;;;;5014813;28;20410;-95
2021/08/11 03:02:39;;;;;;;25.70;23.87;;;;;;;;;;5014229;28;20418;-95
2021/08/11 03:05:07;;;;;;;27.13;25.03;;;;;;;;;;5014061;28;20424;-96
2021/08/11 03:07:35;;;;;;;24.53;22.93;;;;;;;;;;5013906;28;20452;-93
2021/08/11 03:10:02;;;;;;;27.10;25.17;;;;;;;;;;5013673;28;20458;-95
2021/08/11 03:12:30;;;;;;;28.47;26.23;;;;;;;;;;5014082;28;20485;-95
2021/08/11 03:14:57;;;;;;;25.57;23.70;;;;;;;;;;5014515;28;20440;-95
2021/08/11 03:17:27;;;;;;;26.60;24.53;;;;;;;;;;5014230;28;20414;-95
2021/08/11 03:19:54;;;;;;;26.20;24.40;;;;;;;;;;5017286;28;20437;-95
2021/08/11 03:22:22;;;;;;;26.70;24.63;;;;;;;;;;5017325;28;20460;-95
2021/08/11 03:24:51;;;;;;;26.53;24.63;;;;;;;;;;5017152;28;20487;-95
2021/08/11 03:27:18;;;;;;;26.07;24.20;;;;;;;;;;5017075;28;20473;-96
2021/08/11 03:29:46;;;;;;;26.07;24.27;;;;;;;;;;5017869;28;20450;-95
2021/08/11 03:32:13;;;;;;;24.63;22.90;;;;;;;;;;5017142;28;20434;-95
2021/08/11 03:34:42;;;;;;;25.73;24.00;;;;;;;;;;5017493;28;20408;-95
2021/08/11 03:37:13;;;;;;;25.57;23.70;;;;;;;;;;5017068;28;20483;-95
2021/08/11 03:39:41;;;;;;;25.63;23.87;;;;;;;;;;5017087;28;20416;-95
2021/08/11 03:42:09;;;;;;;25.07;23.30;;;;;;;;;;5016933;28;20422;-96
2021/08/11 03:44:36;;;;;;;25.40;23.73;;;;;;;;;;5016893;28;20949;-96
2021/08/11 03:47:04;;;;;;;24.70;23.10;;;;;;;;;;4999599;28;20445;-96
2021/08/11 03:49:31;;;;;;;25.27;23.47;;;;;;;;;;5016819;28;20433;-95
2021/08/11 03:52:00;;;;;;;25.53;23.90;;;;;;;;;;5017551;28;20778;-96
2021/08/11 03:54:28;;;;;;;26.47;24.57;;;;;;;;;;5017077;28;20472;-96
2021/08/11 03:56:55;;;;;;;25.00;23.30;;;;;;;;;;5016786;28;20940;-96
2021/08/11 03:59:23;;;;;;;26.30;24.47;;;;;;;;;;5016581;28;20449;-96
2021/08/11 04:01:53;;;;;;;25.10;23.47;;;;;;;;;;5016728;28;20931;-95
2021/08/11 04:04:21;;;;;;;24.07;22.47;;;;;;;;;;5016735;28;20518;-95
2021/08/11 04:06:48;;;;;;;24.97;23.20;;;;;;;;;;5016646;28;20450;-96
2021/08/11 04:09:17;;;;;;;27.50;25.50;;;;;;;;;;5016326;28;20478;-96
2021/08/11 04:11:45;;;;;;;27.60;24.93;;;;;;;;;;5016543;28;20455;-96
2021/08/11 04:14:13;;;;;;;25.60;23.80;;;;;;;;;;4999785;28;20453;-96
2021/08/11 04:16:41;;;;;;;25.77;24.07;;;;;;;;;;5016611;28;20435;-96
2021/08/11 04:19:09;;;;;;;26.37;24.67;;;;;;;;;;5016636;28;20427;-96
2021/08/11 04:21:36;;;;;;;28.37;26.37;;;;;;;;;;4999187;28;20449;-96
2021/08/11 04:24:04;;;;;;;27.87;25.77;;;;;;;;;;5015999;28;20485;-95
2021/08/11 04:26:33;;;;;;;27.87;25.80;;;;;;;;;;5016441;28;20798;-96
2021/08/11 04:29:00;;;;;;;30.00;27.80;;;;;;;;;;5016139;28;20450;-96
2021/08/11 04:31:27;;;;;;;27.43;25.53;;;;;;;;;;5016572;28;20460;-96
2021/08/11 04:33:55;;;;;;;29.20;26.77;;;;;;;;;;5016268;28;20419;-96
2021/08/11 04:36:22;;;;;;;25.90;24.20;;;;;;;;;;5017254;28;20413;-96
2021/08/11 04:38:50;;;;;;;29.23;27.23;;;;;;;;;;5016420;28;20436;-95
2021/08/11 04:41:17;;;;;;;29.73;27.33;;;;;;;;;;5016116;28;20413;-96
2021/08/11 04:43:46;;;;;;;29.10;26.73;;;;;;;;;;5015697;28;20496;-95
2021/08/11 04:46:14;;;;;;;30.70;27.47;;;;;;;;;;4998610;28;20420;-96
2021/08/11 04:48:41;;;;;;;28.87;26.77;;;;;;;;;;5015664;28;20412;-92
2021/08/11 04:51:09;;;;;;;30.33;28.20;;;;;;;;;;5015544;28;20413;-91
2021/08/11 04:53:36;;;;;;;30.57;28.17;;;;;;;;;;5015762;28;20439;-95
2021/08/11 04:56:03;;;;;;;30.23;27.80;;;;;;;;;;5016592;28;20969;-95
2021/08/11 04:58:31;;;;;;;30.87;28.53;;;;;;;;;;5016188;28;20460;-95
2021/08/11 05:00:59;;;;;;;30.33;27.97;;;;;;;;;;5015771;28;20451;-92
2021/08/11 05:03:27;;;;;;;29.90;27.50;;;;;;;;;;5015340;28;20406;-91
2021/08/11 05:05:54;;;;;;;30.43;27.87;;;;;;;;;;5015345;28;20416;-92
2021/08/11 05:08:22;;;;;;;31.90;29.30;;;;;;;;;;5015108;28;20800;-96
2021/08/11 05:10:49;;;;;;;30.43;28.00;;;;;;;;;;5015598;28;20476;-96
2021/08/11 05:13:16;;;;;;;31.60;29.20;;;;;;;;;;5015794;28;20429;-91
2021/08/11 05:15:44;;;;;;;34.90;32.00;;;;;;;;;;5015557;28;20437;-92
2021/08/11 05:18:13;;;;;;;33.50;30.87;;;;;;;;;;5015379;28;20437;-92
2021/08/11 05:20:40;;;;;;;34.87;31.37;;;;;;;;;;5015450;28;20464;-93
2021/08/11 05:23:08;;;;;;;38.70;34.70;;;;;;;;;;4997885;28;20433;-94
2021/08/11 05:25:35;;;;;;;37.07;33.27;;;;;;;;;;5015463;28;20466;-91
2021/08/11 05:28:02;;;;;;;45.50;37.10;;;;;;;;;;5015192;28;20409;-90
2021/08/11 05:30:30;;;;;;;56.80;40.43;;;;;;;;;;5014912;28;20428;-90
2021/08/11 05:32:58;;;;;;;65.40;42.00;;;;;;;;;;5015055;28;20450;-90
2021/08/11 05:35:27;;;;;;;60.33;40.83;;;;;;;;;;5015205;28;20407;-91
2021/08/11 05:37:54;;;;;;;71.00;44.30;;;;;;;;;;5015063;28;20901;-91
2021/08/11 05:40:22;;;;;;;72.57;46.10;;;;;;;;;;5014554;28;20438;-91
2021/08/11 05:42:49;;;;;;;63.33;44.67;;;;;;;;;;5014525;28;20955;-93
2021/08/11 05:45:17;;;;;;;80.30;45.90;;;;;;;;;;5016494;28;20486;-91
2021/08/11 05:47:44;;;;;;;75.57;47.20;;;;;;;;;;5014911;28;20465;-91
2021/08/11 05:50:12;;;;;;;93.73;50.27;;;;;;;;;;5014544;28;20428;-93
2021/08/11 05:52:41;;;;;;;83.43;46.47;;;;;;;;;;5014570;28;20815;-93
2021/08/11 05:55:09;;;;;;;69.13;46.53;;;;;;;;;;4997627;28;20428;-93
2021/08/11 05:57:38;;;;;;;86.47;46.70;;;;;;;;;;5014457;28;20462;-93
2021/08/11 06:00:08;;;;;;;86.17;47.23;;;;;;;;;;5014904;28;20424;-92
2021/08/11 06:02:36;;;;;;;105.10;47.80;;;;;;;;;;5014524;28;20425;-92
2021/08/11 06:05:03;;;;;;;84.57;48.50;;;;;;;;;;5014717;28;20468;-92
2021/08/11 06:07:31;;;;;;;102.13;49.20;;;;;;;;;;5014761;28;20438;-93
2021/08/11 06:09:59;;;;;;;108.10;51.50;;;;;;;;;;5014151;28;20508;-92
2021/08/11 06:12:27;;;;;;;89.93;48.47;;;;;;;;;;5013643;28;20477;-92
2021/08/11 06:14:55;;;;;;;74.10;45.80;;;;;;;;;;5014809;28;20785;-91
2021/08/11 06:17:22;;;;;;;79.13;50.27;;;;;;;;;;5014338;28;20443;-92
2021/08/11 06:19:49;;;;;;;97.47;51.23;;;;;;;;;;5014181;28;20440;-92
2021/08/11 06:22:17;;;;;;;90.33;50.63;;;;;;;;;;5014217;28;20930;-92
2021/08/11 06:24:45;;;;;;;92.80;49.70;;;;;;;;;;5014472;28;20457;-91
2021/08/11 06:27:14;;;;;;;99.77;50.13;;;;;;;;;;5014680;28;20794;-90
2021/08/11 06:29:41;;;;;;;86.07;48.77;;;;;;;;;;5014717;28;20916;-92
2021/08/11 06:32:09;;;;;;;82.13;46.70;;;;;;;;;;5014270;28;20939;-92
2021/08/11 06:34:36;;;;;;;80.70;46.60;;;;;;;;;;5014687;28;20782;-92
2021/08/11 06:37:03;;;;;;;71.13;47.40;;;;;;;;;;5014714;28;20476;-92
2021/08/11 06:39:31;;;;;;;75.77;47.60;;;;;;;;;;5014044;28;20502;-91
2021/08/11 06:41:58;;;;;;;76.17;46.30;;;;;;;;;;5014118;28;20453;-92
2021/08/11 06:44:27;;;;;;;74.53;47.37;;;;;;;;;;5014362;28;20488;-91
2021/08/11 06:46:55;;;;;;;69.00;44.07;;;;;;;;;;4997016;28;20477;-91
2021/08/11 06:49:22;;;;;;;56.87;44.03;;;;;;;;;;5014056;28;20532;-92
2021/08/11 06:51:50;;;;;;;73.60;45.77;;;;;;;;;;4997308;28;20418;-93
2021/08/11 06:54:17;;;;;;;83.60;45.07;;;;;;;;;;5018248;28;20449;-91
2021/08/11 06:56:44;;;;;;;61.37;44.10;;;;;;;;;;5017727;28;20483;-92
2021/08/11 06:59:12;;;;;;;58.40;43.10;;;;;;;;;;5017959;28;20860;-91
2021/08/11 07:01:41;;;;;;;62.57;44.23;;;;;;;;;;5018130;28;20441;-89
2021/08/11 07:04:08;;;;;;;68.77;45.27;;;;;;;;;;5000360;28;20449;-87
2021/08/11 07:06:35;;;;;;;57.07;42.37;;;;;;;;;;5017497;28;20441;-91
2021/08/11 07:09:03;;;;;;;67.40;42.57;;;;;;;;;;5000631;28;20457;-92
2021/08/11 07:11:30;;;;;;;64.60;42.90;;;;;;;;;;5017542;28;20467;-95
2021/08/11 07:13:58;;;;;;;70.03;46.17;;;;;;;;;;5018084;28;20416;-93
2021/08/11 07:16:25;;;;;;;67.67;46.10;;;;;;;;;;5017432;28;20449;-92
2021/08/11 07:18:54;;;;;;;68.73;44.97;;;;;;;;;;5017346;28;20463;-93
2021/08/11 07:21:21;;;;;;;72.30;47.83;;;;;;;;;;5017221;28;20446;-92
2021/08/11 07:23:49;;;;;;;61.10;44.03;;;;;;;;;;5017477;28;20932;-93
2021/08/11 07:26:19;;;;;;;73.43;46.27;;;;;;;;;;5016931;28;20468;-92
2021/08/11 07:28:46;;;;;;;62.83;44.63;;;;;;;;;;5017078;28;20913;-91
2021/08/11 07:31:14;;;;;;;60.57;42.30;;;;;;;;;;5017016;28;20474;-91
2021/08/11 07:33:41;;;;;;;57.07;42.43;;;;;;;;;;5017292;28;20429;-92
2021/08/11 07:36:10;;;;;;;53.60;43.07;;;;;;;;;;5017373;28;20788;-91
2021/08/11 07:38:38;;;;;;;49.50;42.43;;;;;;;;;;4999750;28;20791;-92
2021/08/11 07:41:05;;;;;;;46.27;41.27;;;;;;;;;;4999322;28;20793;-92
2021/08/11 07:43:33;;;;;;;50.23;42.40;;;;;;;;;;5016715;28;20964;-91
2021/08/11 07:46:00;;;;;;;48.67;41.67;;;;;;;;;;4999640;28;20869;-92
2021/08/11 07:48:28;;;;;;;47.73;41.43;;;;;;;;;;5017055;28;20451;-91
2021/08/11 07:50:55;;;;;;;48.77;41.43;;;;;;;;;;5017068;28;20856;-91
2021/08/11 07:53:24;;;;;;;58.77;43.47;;;;;;;;;;4999703;28;20417;-92
2021/08/11 07:55:51;;;;;;;51.87;42.83;;;;;;;;;;5016814;28;20448;-91
2021/08/11 07:58:20;;;;;;;51.40;42.90;;;;;;;;;;5017003;28;20433;-92
2021/08/11 08:00:48;;;;;;;48.50;43.37;;;;;;;;;;5016812;28;20532;-92
2021/08/11 08:03:15;;;;;;;50.50;41.93;;;;;;;;;;5016371;28;20507;-90
2021/08/11 08:05:43;;;;;;;48.80;43.50;;;;;;;;;;5015619;28;20495;-91
2021/08/11 08:08:10;;;;;;;49.20;42.80;;;;;;;;;;5016382;28;20445;-91
2021/08/11 08:10:39;;;;;;;50.10;42.40;;;;;;;;;;5015933;28;20468;-91
2021/08/11 08:13:06;;;;;;;49.57;41.27;;;;;;;;;;5016231;28;20478;-92
2021/08/11 08:15:34;;;;;;;53.50;42.20;;;;;;;;;;5016464;28;20429;-92
2021/08/11 08:18:02;;;;;;;47.87;40.37;;;;;;;;;;4999054;28;20458;-92
2021/08/11 08:20:30;;;;;;;50.93;42.23;;;;;;;;;;5016368;28;20443;-92
2021/08/11 08:22:57;;;;;;;44.80;40.20;;;;;;;;;;5016298;28;20445;-92
2021/08/11 08:25:25;;;;;;;46.77;41.57;;;;;;;;;;5015944;28;20485;-90
2021/08/11 08:27:55;;;;;;;51.77;40.27;;;;;;;;;;5015948;28;20449;-90
2021/08/11 08:30:22;;;;;;;44.17;39.37;;;;;;;;;;5016124;28;20448;-90
2021/08/11 08:32:50;;;;;;;48.50;41.50;;;;;;;;;;5016354;28;20439;-92
2021/08/11 08:35:19;;;;;;;43.70;39.10;;;;;;;;;;5015888;28;20470;-92
2021/08/11 08:37:46;;;;;;;43.77;39.17;;;;;;;;;;5015894;28;20429;-91
2021/08/11 08:40:15;;;;;;;43.00;38.73;;;;;;;;;;4998287;28;20454;-91
2021/08/11 08:42:43;;;;;;;45.43;40.80;;;;;;;;;;5016000;28;20421;-91
2021/08/11 08:45:13;;;;;;;43.07;39.10;;;;;;;;;;5015989;28;20494;-91
2021/08/11 08:47:41;;;;;;;41.63;37.47;;;;;;;;;;5015294;28;20922;-92
2021/08/11 08:50:09;;;;;;;44.13;39.67;;;;;;;;;;5016441;28;20429;-93
2021/08/11 08:52:38;;;;;;;42.33;37.90;;;;;;;;;;5015507;28;20469;-92
2021/08/11 08:55:06;;;;;;;41.13;37.13;;;;;;;;;;5015714;28;20564;-91
2021/08/11 08:57:35;;;;;;;41.67;37.57;;;;;;;;;;5015739;28;20416;-91
2021/08/11 09:00:05;;;;;;;41.30;37.63;;;;;;;;;;5015668;28;20451;-92
2021/08/11 09:02:38;;;;;;;39.43;35.87;;;;;;;;;;5015760;28;20434;-91
2021/08/11 09:05:05;;;;;;;41.67;37.77;;;;;;;;;;5015216;28;20497;-91
2021/08/11 09:07:33;;;;;;;40.23;36.43;;;;;;;;;;4999176;28;20767;-92
2021/08/11 09:10:12;;;;;;;40.00;36.30;;;;;;;;;;5015508;28;20461;-90
2021/08/11 09:12:45;;;;;;;41.70;37.93;;;;;;;;;;5015042;28;20482;-92
2021/08/11 09:15:26;;;;;;;40.90;36.97;;;;;;;;;;5014879;28;20513;-92
2021/08/11 09:17:55;;;;;;;40.83;36.87;;;;;;;;;;5014746;28;20456;-92
2021/08/11 09:20:23;;;;;;;41.03;37.33;;;;;;;;;;5015173;28;20503;-92
2021/08/11 09:22:52;;;;;;;42.07;38.13;;;;;;;;;;5015057;28;20813;-92
2021/08/11 09:25:19;;;;;;;40.73;36.90;;;;;;;;;;5015182;28;20483;-91
2021/08/11 09:27:47;;;;;;;39.20;35.70;;;;;;;;;;5015157;28;20447;-92
2021/08/11 09:30:16;;;;;;;40.50;36.80;;;;;;;;;;5015834;28;20437;-92
2021/08/11 09:32:50;;;;;;;39.77;36.00;;;;;;;;;;5014829;28;20983;-92
2021/08/11 09:35:21;;;;;;;40.00;36.20;;;;;;;;;;5014826;28;20438;-91
2021/08/11 09:37:49;;;;;;;39.47;35.77;;;;;;;;;;5014804;28;20482;-93
2021/08/11 09:40:18;;;;;;;39.37;35.50;;;;;;;;;;5014634;28;20823;-92
2021/08/11 09:42:46;;;;;;;40.60;36.70;;;;;;;;;;5015115;28;20532;-92
2021/08/11 09:45:13;;;;;;;40.23;36.67;;;;;;;;;;5015222;28;21018;-93
2021/08/11 09:47:53;;;;;;;37.77;34.17;;;;;;;;;;4997676;28;20458;-92
2021/08/11 09:50:32;;;;;;;38.80;35.30;;;;;;;;;;5014724;28;20888;-93
2021/08/11 09:53:00;;;;;;;36.17;32.90;;;;;;;;;;4997754;28;20450;-93
2021/08/11 09:55:27;;;;;;;39.43;35.60;;;;;;;;;;5014774;28;20428;-93
2021/08/11 09:57:54;;;;;;;39.33;35.83;;;;;;;;;;5014321;28;20974;-93
2021/08/11 10:00:22;;;;;;;38.60;35.13;;;;;;;;;;4997514;28;20910;-93
2021/08/11 10:03:03;;;;;;;37.83;34.43;;;;;;;;;;5014751;28;20442;-93
2021/08/11 10:05:43;;;;;;;41.23;37.70;;;;;;;;;;5014530;28;20453;-92
2021/08/11 10:08:11;;;;;;;36.57;33.47;;;;;;;;;;5014882;28;20430;-92
2021/08/11 10:10:46;;;;;;;38.57;34.83;;;;;;;;;;4996903;28;20466;-93
2021/08/11 10:13:14;;;;;;;36.20;33.40;;;;;;;;;;5014805;28;20477;-93
2021/08/11 10:15:42;;;;;;;37.23;34.07;;;;;;;;;;5014289;28;20450;-93
2021/08/11 10:18:10;;;;;;;37.00;34.00;;;;;;;;;;4997128;28;20422;-93
2021/08/11 10:20:39;;;;;;;39.87;36.27;;;;;;;;;;5014479;28;20432;-93
2021/08/11 10:23:07;;;;;;;38.90;35.50;;;;;;;;;;5014686;28;20446;-93
2021/08/11 10:25:34;;;;;;;38.10;34.70;;;;;;;;;;4996982;28;20507;-92
2021/08/11 10:28:02;;;;;;;40.63;37.27;;;;;;;;;;5017925;28;20432;-92
2021/08/11 10:30:30;;;;;;;35.83;33.00;;;;;;;;;;5017745;28;20418;-93
2021/08/11 10:32:58;;;;;;;36.20;33.30;;;;;;;;;;5018396;28;20830;-92
2021/08/11 10:35:25;;;;;;;38.40;35.17;;;;;;;;;;5018607;28;20439;-92
2021/08/11 10:37:54;;;;;;;37.67;34.73;;;;;;;;;;5018364;28;20443;-91
2021/08/11 10:40:22;;;;;;;35.90;33.07;;;;;;;;;;5017929;28;20444;-91
2021/08/11 10:42:56;;;;;;;35.07;32.30;;;;;;;;;;5018339;28;20458;-93
2021/08/11 10:45:24;;;;;;;34.13;31.03;;;;;;;;;;5018117;28;20503;-93
2021/08/11 10:47:52;;;;;;;31.63;29.20;;;;;;;;;;5018372;28;20422;-94
2021/08/11 10:50:19;;;;;;;34.10;31.23;;;;;;;;;;5018118;28;20462;-93
2021/08/11 10:52:47;;;;;;;32.23;30.03;;;;;;;;;;5017524;28;20942;-94
2021/08/11 10:55:16;;;;;;;32.33;30.13;;;;;;;;;;5000567;28;20437;-94
2021/08/11 10:57:50;;;;;;;36.03;32.73;;;;;;;;;;5018016;28;20430;-93
2021/08/11 11:00:36;;;;;;;33.17;30.60;;;;;;;;;;5015004;28;20447;-94
2021/08/11 11:03:03;;;;;;;33.77;31.27;;;;;;;;;;5018451;28;20426;-94
2021/08/11 11:06:02;;;;;;;31.67;29.37;;;;;;;;;;5017688;28;20972;-93
2021/08/11 11:08:33;;;;;;;32.73;29.90;;;;;;;;;;5017524;28;20466;-94
2021/08/11 11:11:31;;;;;;;32.60;30.00;;;;;;;;;;5000168;28;20475;-94
2021/08/11 11:13:58;;;;;;;31.83;29.43;;;;;;;;;;5017536;28;20452;-94
2021/08/11 11:16:41;;;;;;;33.93;31.33;;;;;;;;;;5017652;28;20421;-94
2021/08/11 11:19:09;;;;;;;33.10;30.60;;;;;;;;;;5017406;28;20434;-95
2021/08/11 11:21:36;;;;;;;32.77;30.43;;;;;;;;;;5017386;28;20473;-95
2021/08/11 11:24:03;;;;;;;31.90;29.60;;;;;;;;;;5000248;28;20425;-94
2021/08/11 11:26:43;;;;;;;34.90;31.90;;;;;;;;;;5017082;28;20959;-95
2021/08/11 11:29:11;;;;;;;31.23;29.00;;;;;;;;;;5015012;28;20432;-95
2021/08/11 11:31:43;;;;;;;31.00;28.80;;;;;;;;;;5017807;28;20915;-95
2021/08/11 11:34:27;;;;;;;33.83;31.07;;;;;;;;;;5016860;28;20953;-95
2021/08/11 11:37:18;;;;;;;31.63;29.40;;;;;;;;;;5017261;28;20470;-94
2021/08/11 11:40:05;;;;;;;31.47;29.27;;;;;;;;;;4997072;28;20470;-94
2021/08/11 11:42:34;;;;;;;31.50;29.20;;;;;;;;;;5017731;28;20879;-95
2021/08/11 11:45:02;;;;;;;33.87;31.40;;;;;;;;;;5017333;28;20462;-95
2021/08/11 11:47:48;;;;;;;31.17;28.97;;;;;;;;;;5016961;28;20514;-95
2021/08/11 11:50:28;;;;;;;32.70;30.40;;;;;;;;;;5016679;28;20443;-94
2021/08/11 11:52:57;;;;;;;32.53;30.13;;;;;;;;;;4983524;28;20418;-94
2021/08/11 11:55:28;;;;;;;30.50;28.40;;;;;;;;;;5016912;28;20448;-94
2021/08/11 11:57:57;;;;;;;32.60;30.20;;;;;;;;;;5016794;28;20405;-94
2021/08/11 12:00:24;;;;;;;31.47;29.30;;;;;;;;;;5016941;28;20415;-94
2021/08/11 12:02:52;;;;;;;32.53;30.23;;;;;;;;;;5017365;28;20426;-94
2021/08/11 12:05:19;;;;;;;31.00;28.70;;;;;;;;;;5016714;28;20407;-93
2021/08/11 12:07:47;;;;;;;31.47;29.27;;;;;;;;;;4999115;28;20496;-93
2021/08/11 12:10:22;;;;;;;31.87;29.60;;;;;;;;;;5016643;28;20476;-94
2021/08/11 12:13:00;;;;;;;32.30;29.67;;;;;;;;;;5015958;28;20483;-94
2021/08/11 12:15:28;;;;;;;33.83;31.20;;;;;;;;;;5016798;28;20448;-94
2021/08/11 12:18:00;;;;;;;30.03;27.93;;;;;;;;;;5016158;28;20941;-94
2021/08/11 12:20:28;;;;;;;32.03;29.73;;;;;;;;;;5016228;28;20840;-93
2021/08/11 12:22:56;;;;;;;30.03;27.83;;;;;;;;;;5016735;28;20418;-93
2021/08/11 12:25:24;;;;;;;31.10;28.80;;;;;;;;;;5017295;28;20441;-93
2021/08/11 12:28:08;;;;;;;30.30;28.03;;;;;;;;;;5020753;28;20471;-95
2021/08/11 12:30:36;;;;;;;31.87;29.67;;;;;;;;;;5036036;28;20425;-93
2021/08/11 12:33:03;;;;;;;30.30;28.20;;;;;;;;;;5036852;28;20746;-94
2021/08/11 12:35:31;;;;;;;31.63;29.43;;;;;;;;;;5036755;28;20436;-94
2021/08/11 12:37:58;;;;;;;30.57;28.53;;;;;;;;;;5036524;28;20479;-88
2021/08/11 12:40:30;;;;;;;30.50;28.00;;;;;;;;;;5037898;28;20429;-92
2021/08/11 12:42:58;;;;;;;29.00;26.97;;;;;;;;;;5035545;28;20454;-90
2021/08/11 12:45:28;;;;;;;30.67;28.47;;;;;;;;;;5018985;28;20475;-90
2021/08/11 12:47:55;;;;;;;30.00;28.00;;;;;;;;;;5035616;28;20487;-87
2021/08/11 12:50:24;;;;;;;29.80;27.80;;;;;;;;;;5034912;28;20413;-90
2021/08/11 12:52:55;;;;;;;28.33;26.53;;;;;;;;;;5035564;28;20430;-89
2021/08/11 12:55:32;;;;;;;29.67;27.73;;;;;;;;;;5035716;28;20757;-93
2021/08/11 12:58:01;;;;;;;27.50;25.70;;;;;;;;;;5018797;28;20425;-93
2021/08/11 13:00:44;;;;;;;29.27;27.37;;;;;;;;;;5035104;28;20541;-91
2021/08/11 13:03:12;;;;;;;29.03;27.10;;;;;;;;;;5035743;28;20433;-88
2021/08/11 13:05:52;;;;;;;29.17;27.27;;;;;;;;;;5034718;28;20830;-88
2021/08/11 13:08:20;;;;;;;28.50;26.70;;;;;;;;;;5017315;28;20421;-89
2021/08/11 13:10:55;;;;;;;29.27;27.30;;;;;;;;;;5034735;28;20918;-88
2021/08/11 13:13:23;;;;;;;29.30;27.40;;;;;;;;;;5035174;28;20472;-88
2021/08/11 13:16:07;;;;;;;29.03;27.13;;;;;;;;;;5017489;28;20465;-89
2021/08/11 13:18:34;;;;;;;30.57;28.10;;;;;;;;;;5034838;28;20449;-88
2021/08/11 13:21:02;;;;;;;29.47;27.57;;;;;;;;;;5035081;28;20417;-88
2021/08/11 13:23:29;;;;;;;29.23;27.33;;;;;;;;;;5034614;28;20414;-87
2021/08/11 13:25:57;;;;;;;29.90;27.90;;;;;;;;;;5034530;28;20481;-86
2021/08/11 13:28:25;;;;;;;30.10;28.13;;;;;;;;;;5017174;28;20477;-86
2021/08/11 13:30:54;;;;;;;30.07;28.00;;;;;;;;;;5034777;28;20421;-89
2021/08/11 13:33:22;;;;;;;30.60;28.67;;;;;;;;;;5034727;28;20417;-91
2021/08/11 13:35:49;;;;;;;29.50;27.60;;;;;;;;;;5034689;28;20425;-91
2021/08/11 13:38:16;;;;;;;28.30;26.50;;;;;;;;;;5035114;28;20454;-89
2021/08/11 13:40:44;;;;;;;29.17;27.37;;;;;;;;;;5034452;28;20919;-89
2021/08/11 13:43:11;;;;;;;30.03;28.13;;;;;;;;;;5017654;28;20757;-85
2021/08/11 13:45:40;;;;;;;29.40;27.50;;;;;;;;;;5035457;28;20782;-89
2021/08/11 13:48:09;;;;;;;29.03;27.20;;;;;;;;;;5034669;28;20460;-90
2021/08/11 13:50:37;;;;;;;28.60;26.70;;;;;;;;;;5034999;28;20432;-94
2021/08/11 13:53:04;;;;;;;29.20;27.40;;;;;;;;;;5017277;28;20431;-90
2021/08/11 13:55:32;;;;;;;30.07;27.97;;;;;;;;;;5034455;28;20446;-90
2021/08/11 13:57:59;;;;;;;28.67;26.40;;;;;;;;;;5016925;28;20447;-90
2021/08/11 14:00:27;;;;;;;27.43;25.63;;;;;;;;;;5034400;28;20608;-92
2021/08/11 14:02:54;;;;;;;27.60;25.90;;;;;;;;;;5033639;28;20425;-87
2021/08/11 14:05:23;;;;;;;27.17;25.47;;;;;;;;;;5034606;28;20417;-88
2021/08/11 14:07:51;;;;;;;26.33;24.73;;;;;;;;;;5034360;28;20493;-88
2021/08/11 14:10:18;;;;;;;26.67;24.87;;;;;;;;;;5034151;28;20482;-88
2021/08/11 14:12:46;;;;;;;26.40;24.80;;;;;;;;;;5033982;28;20483;-89
2021/08/11 14:15:13;;;;;;;27.00;25.40;;;;;;;;;;5034389;28;20440;-87
2021/08/11 14:17:40;;;;;;;26.90;24.97;;;;;;;;;;5034198;28;20447;-87
2021/08/11 14:20:08;;;;;;;26.90;25.10;;;;;;;;;;5034039;28;20452;-88
2021/08/11 14:22:37;;;;;;;26.47;24.77;;;;;;;;;;5034387;28;20446;-88
2021/08/11 14:25:05;;;;;;;26.93;25.10;;;;;;;;;;5034049;28;20409;-86
2021/08/11 14:27:32;;;;;;;25.83;24.33;;;;;;;;;;5034141;28;20835;-87